Lynn, Massachusetts
Current Conditions -  °F | °C
As of 4:54 AM on Tuesday 21 Oct 2014 (Local Time) from KBOS Reporting Station
Overcast Overcast  
Wind Chill: 51°   Ceiling: 6000
Heat Index: 51°   Visibility: 10mi
Dew Point: 48°   Wind: 5mph
Humidity: 89%   Direction: 140°SE
Pressure: 29.98"   Gusts: NA
Location:  42.46°N, 70.95°W
Report Text: KBOS 210854Z 14004KT 10SM OVC060 11/09 A2998 RMK AO2 RAB28E50 SLP152 P0000 60000 T01060089 56008
Loading
Personal Weather Stations






























Interactive Weather Map
Tropical Storm Tracking
New forecast layout! Learn more

10-Day Weather Forecast

Advertisements
Track Severe Weather on mobile